sensor_id;sensor_type;location;lat;lon;timestamp;P1;durP1;ratioP1;P2;durP2;ratioP2
11228;SDS011;5671;47.936;8.716;2024-03-22T00:01:48;5.40;;;3.30;;
11228;SDS011;5671;47.936;8.716;2024-03-22T00:04:15;5.77;;;3.40;;
11228;SDS011;5671;47.936;8.716;2024-03-22T00:06:42;3.67;;;3.37;;
11228;SDS011;5671;47.936;8.716;2024-03-22T00:09:09;4.97;;;3.87;;
11228;SDS011;5671;47.936;8.716;2024-03-22T00:11:35;5.53;;;3.40;;
11228;SDS011;5671;47.936;8.716;2024-03-22T00:14:02;3.20;;;2.87;;
11228;SDS011;5671;47.936;8.716;2024-03-22T00:16:28;3.87;;;2.80;;
11228;SDS011;5671;47.936;8.716;2024-03-22T00:18:56;3.27;;;2.93;;
11228;SDS011;5671;47.936;8.716;2024-03-22T00:21:22;4.03;;;2.73;;
11228;SDS011;5671;47.936;8.716;2024-03-22T00:23:49;4.43;;;3.33;;
11228;SDS011;5671;47.936;8.716;2024-03-22T00:26:15;4.13;;;3.00;;
11228;SDS011;5671;47.936;8.716;2024-03-22T00:28:42;4.53;;;3.00;;
11228;SDS011;5671;47.936;8.716;2024-03-22T00:31:08;4.47;;;3.40;;
11228;SDS011;5671;47.936;8.716;2024-03-22T00:33:36;3.40;;;3.10;;
11228;SDS011;5671;47.936;8.716;2024-03-22T00:36:04;3.73;;;3.40;;
11228;SDS011;5671;47.936;8.716;2024-03-22T00:38:32;3.63;;;3.30;;
11228;SDS011;5671;47.936;8.716;2024-03-22T00:40:58;4.47;;;3.50;;
11228;SDS011;5671;47.936;8.716;2024-03-22T00:43:25;4.27;;;3.30;;
11228;SDS011;5671;47.936;8.716;2024-03-22T00:45:50;3.27;;;2.93;;
11228;SDS011;5671;47.936;8.716;2024-03-22T00:48:17;5.47;;;3.50;;
11228;SDS011;5671;47.936;8.716;2024-03-22T00:50:43;3.87;;;3.10;;
11228;SDS011;5671;47.936;8.716;2024-03-22T00:53:11;6.97;;;4.00;;
11228;SDS011;5671;47.936;8.716;2024-03-22T00:55:37;7.20;;;3.60;;
11228;SDS011;5671;47.936;8.716;2024-03-22T00:58:04;6.20;;;3.53;;
11228;SDS011;5671;47.936;8.716;2024-03-22T01:00:30;4.03;;;3.20;;
11228;SDS011;5671;47.936;8.716;2024-03-22T01:02:57;4.53;;;3.03;;
11228;SDS011;5671;47.936;8.716;2024-03-22T01:05:23;3.80;;;3.20;;
11228;SDS011;5671;47.936;8.716;2024-03-22T01:07:51;3.97;;;3.37;;
11228;SDS011;5671;47.936;8.716;2024-03-22T01:10:18;4.27;;;3.17;;
11228;SDS011;5671;47.936;8.716;2024-03-22T01:12:45;6.73;;;3.40;;
11228;SDS011;5671;47.936;8.716;2024-03-22T01:15:11;3.53;;;3.23;;
11228;SDS011;5671;47.936;8.716;2024-03-22T01:17:37;4.37;;;3.20;;
11228;SDS011;5671;47.936;8.716;2024-03-22T01:20:04;5.20;;;4.00;;
11228;SDS011;5671;47.936;8.716;2024-03-22T01:22:31;7.37;;;3.67;;
11228;SDS011;5671;47.936;8.716;2024-03-22T01:24:56;6.23;;;3.07;;
11228;SDS011;5671;47.936;8.716;2024-03-22T01:27:25;3.67;;;3.03;;
11228;SDS011;5671;47.936;8.716;2024-03-22T01:29:50;3.37;;;3.07;;
11228;SDS011;5671;47.936;8.716;2024-03-22T01:32:17;4.00;;;3.50;;
11228;SDS011;5671;47.936;8.716;2024-03-22T01:34:43;3.97;;;3.00;;
11228;SDS011;5671;47.936;8.716;2024-03-22T01:37:10;5.80;;;3.30;;
11228;SDS011;5671;47.936;8.716;2024-03-22T01:39:36;5.10;;;3.40;;
11228;SDS011;5671;47.936;8.716;2024-03-22T01:42:03;4.63;;;3.30;;
11228;SDS011;5671;47.936;8.716;2024-03-22T01:44:31;4.47;;;3.40;;
11228;SDS011;5671;47.936;8.716;2024-03-22T01:46:58;3.57;;;3.20;;
11228;SDS011;5671;47.936;8.716;2024-03-22T01:49:24;3.20;;;2.90;;
11228;SDS011;5671;47.936;8.716;2024-03-22T01:51:52;5.27;;;3.60;;
11228;SDS011;5671;47.936;8.716;2024-03-22T01:54:19;4.00;;;3.40;;
11228;SDS011;5671;47.936;8.716;2024-03-22T01:56:46;4.53;;;4.00;;
11228;SDS011;5671;47.936;8.716;2024-03-22T01:59:13;6.50;;;3.70;;
11228;SDS011;5671;47.936;8.716;2024-03-22T02:01:41;5.23;;;3.57;;
11228;SDS011;5671;47.936;8.716;2024-03-22T02:04:07;5.80;;;4.07;;
11228;SDS011;5671;47.936;8.716;2024-03-22T02:06:34;5.47;;;3.80;;
11228;SDS011;5671;47.936;8.716;2024-03-22T02:09:00;4.00;;;3.60;;
11228;SDS011;5671;47.936;8.716;2024-03-22T02:11:29;4.57;;;3.37;;
11228;SDS011;5671;47.936;8.716;2024-03-22T02:13:55;4.40;;;3.40;;
11228;SDS011;5671;47.936;8.716;2024-03-22T02:16:22;7.50;;;3.97;;
11228;SDS011;5671;47.936;8.716;2024-03-22T02:18:49;5.03;;;3.70;;
11228;SDS011;5671;47.936;8.716;2024-03-22T02:21:16;5.80;;;3.70;;
11228;SDS011;5671;47.936;8.716;2024-03-22T02:23:43;4.17;;;3.50;;
11228;SDS011;5671;47.936;8.716;2024-03-22T02:26:10;4.30;;;3.90;;
11228;SDS011;5671;47.936;8.716;2024-03-22T02:28:36;5.47;;;4.10;;
11228;SDS011;5671;47.936;8.716;2024-03-22T02:31:03;4.27;;;3.87;;
11228;SDS011;5671;47.936;8.716;2024-03-22T02:33:29;4.67;;;3.43;;
11228;SDS011;5671;47.936;8.716;2024-03-22T02:35:56;3.77;;;3.43;;
11228;SDS011;5671;47.936;8.716;2024-03-22T02:38:22;5.67;;;3.80;;
11228;SDS011;5671;47.936;8.716;2024-03-22T02:40:51;4.23;;;3.23;;
11228;SDS011;5671;47.936;8.716;2024-03-22T02:43:17;3.70;;;3.07;;
11228;SDS011;5671;47.936;8.716;2024-03-22T02:45:46;4.03;;;3.10;;
11228;SDS011;5671;47.936;8.716;2024-03-22T02:48:12;4.67;;;3.70;;
11228;SDS011;5671;47.936;8.716;2024-03-22T02:50:39;4.83;;;3.57;;
11228;SDS011;5671;47.936;8.716;2024-03-22T02:53:05;3.53;;;3.23;;
11228;SDS011;5671;47.936;8.716;2024-03-22T02:55:35;4.50;;;3.40;;
11228;SDS011;5671;47.936;8.716;2024-03-22T02:58:03;4.33;;;3.43;;
11228;SDS011;5671;47.936;8.716;2024-03-22T03:00:30;5.97;;;3.77;;
11228;SDS011;5671;47.936;8.716;2024-03-22T03:02:56;4.17;;;3.60;;
11228;SDS011;5671;47.936;8.716;2024-03-22T03:05:23;4.33;;;3.10;;
11228;SDS011;5671;47.936;8.716;2024-03-22T03:07:48;4.90;;;3.80;;
11228;SDS011;5671;47.936;8.716;2024-03-22T03:10:16;4.33;;;3.93;;
11228;SDS011;5671;47.936;8.716;2024-03-22T03:12:42;5.27;;;3.80;;
11228;SDS011;5671;47.936;8.716;2024-03-22T03:15:10;3.80;;;3.40;;
11228;SDS011;5671;47.936;8.716;2024-03-22T03:17:36;5.93;;;3.63;;
11228;SDS011;5671;47.936;8.716;2024-03-22T03:20:03;5.13;;;3.67;;
11228;SDS011;5671;47.936;8.716;2024-03-22T03:22:32;3.17;;;2.90;;
11228;SDS011;5671;47.936;8.716;2024-03-22T03:25:00;6.40;;;3.80;;
11228;SDS011;5671;47.936;8.716;2024-03-22T03:27:26;5.27;;;4.00;;
11228;SDS011;5671;47.936;8.716;2024-03-22T03:29:53;5.90;;;4.03;;
11228;SDS011;5671;47.936;8.716;2024-03-22T03:32:20;6.23;;;3.70;;
11228;SDS011;5671;47.936;8.716;2024-03-22T03:34:47;4.40;;;3.77;;
11228;SDS011;5671;47.936;8.716;2024-03-22T03:37:12;4.63;;;3.73;;
11228;SDS011;5671;47.936;8.716;2024-03-22T03:39:40;4.20;;;3.27;;
11228;SDS011;5671;47.936;8.716;2024-03-22T03:42:06;5.53;;;3.50;;
11228;SDS011;5671;47.936;8.716;2024-03-22T03:44:33;5.43;;;3.70;;
11228;SDS011;5671;47.936;8.716;2024-03-22T03:46:59;5.80;;;3.67;;
11228;SDS011;5671;47.936;8.716;2024-03-22T03:49:29;7.10;;;3.43;;
11228;SDS011;5671;47.936;8.716;2024-03-22T03:51:54;6.07;;;4.20;;
11228;SDS011;5671;47.936;8.716;2024-03-22T03:54:21;5.23;;;4.20;;
11228;SDS011;5671;47.936;8.716;2024-03-22T03:56:47;4.07;;;3.53;;
11228;SDS011;5671;47.936;8.716;2024-03-22T03:59:14;5.43;;;3.70;;
11228;SDS011;5671;47.936;8.716;2024-03-22T04:01:40;5.63;;;3.50;;
11228;SDS011;5671;47.936;8.716;2024-03-22T04:04:07;8.47;;;4.13;;
11228;SDS011;5671;47.936;8.716;2024-03-22T04:06:34;4.47;;;3.80;;
11228;SDS011;5671;47.936;8.716;2024-03-22T04:09:01;6.40;;;3.87;;
11228;SDS011;5671;47.936;8.716;2024-03-22T04:11:28;5.73;;;3.67;;
11228;SDS011;5671;47.936;8.716;2024-03-22T04:13:54;8.03;;;4.07;;
11228;SDS011;5671;47.936;8.716;2024-03-22T04:16:20;4.77;;;3.87;;
11228;SDS011;5671;47.936;8.716;2024-03-22T04:18:47;6.17;;;4.47;;
11228;SDS011;5671;47.936;8.716;2024-03-22T04:21:13;5.70;;;4.10;;
11228;SDS011;5671;47.936;8.716;2024-03-22T04:23:41;4.80;;;4.30;;
11228;SDS011;5671;47.936;8.716;2024-03-22T04:26:07;4.67;;;4.10;;
11228;SDS011;5671;47.936;8.716;2024-03-22T04:28:34;5.37;;;4.20;;
11228;SDS011;5671;47.936;8.716;2024-03-22T04:31:00;5.50;;;4.13;;
11228;SDS011;5671;47.936;8.716;2024-03-22T04:33:28;5.37;;;4.50;;
11228;SDS011;5671;47.936;8.716;2024-03-22T04:35:56;7.10;;;3.97;;
11228;SDS011;5671;47.936;8.716;2024-03-22T04:38:23;5.37;;;4.47;;
11228;SDS011;5671;47.936;8.716;2024-03-22T04:40:52;5.73;;;4.00;;
11228;SDS011;5671;47.936;8.716;2024-03-22T04:43:19;6.67;;;4.40;;
11228;SDS011;5671;47.936;8.716;2024-03-22T04:45:46;5.17;;;4.10;;
11228;SDS011;5671;47.936;8.716;2024-03-22T04:48:13;4.57;;;4.13;;
11228;SDS011;5671;47.936;8.716;2024-03-22T04:50:41;10.40;;;4.67;;
11228;SDS011;5671;47.936;8.716;2024-03-22T04:53:07;6.87;;;4.50;;
11228;SDS011;5671;47.936;8.716;2024-03-22T04:55:33;5.50;;;4.17;;
11228;SDS011;5671;47.936;8.716;2024-03-22T04:58:01;8.37;;;4.23;;
11228;SDS011;5671;47.936;8.716;2024-03-22T05:00:28;6.43;;;4.83;;
11228;SDS011;5671;47.936;8.716;2024-03-22T05:02:54;7.10;;;4.43;;
11228;SDS011;5671;47.936;8.716;2024-03-22T05:05:20;6.77;;;4.27;;
11228;SDS011;5671;47.936;8.716;2024-03-22T05:07:46;5.30;;;4.77;;
11228;SDS011;5671;47.936;8.716;2024-03-22T05:10:13;5.40;;;4.17;;
11228;SDS011;5671;47.936;8.716;2024-03-22T05:12:42;5.97;;;4.17;;
11228;SDS011;5671;47.936;8.716;2024-03-22T05:15:11;5.80;;;4.40;;
11228;SDS011;5671;47.936;8.716;2024-03-22T05:17:37;7.33;;;4.70;;
11228;SDS011;5671;47.936;8.716;2024-03-22T05:20:04;6.53;;;4.50;;
11228;SDS011;5671;47.936;8.716;2024-03-22T05:22:33;6.60;;;4.47;;
11228;SDS011;5671;47.936;8.716;2024-03-22T05:25:00;8.93;;;4.20;;
11228;SDS011;5671;47.936;8.716;2024-03-22T05:27:26;5.93;;;4.63;;
11228;SDS011;5671;47.936;8.716;2024-03-22T05:29:53;6.90;;;4.50;;
11228;SDS011;5671;47.936;8.716;2024-03-22T05:32:20;4.90;;;4.40;;
11228;SDS011;5671;47.936;8.716;2024-03-22T05:34:47;5.70;;;4.90;;
11228;SDS011;5671;47.936;8.716;2024-03-22T05:37:13;5.30;;;4.43;;
11228;SDS011;5671;47.936;8.716;2024-03-22T05:39:43;4.70;;;4.23;;
11228;SDS011;5671;47.936;8.716;2024-03-22T05:42:08;7.70;;;4.53;;
11228;SDS011;5671;47.936;8.716;2024-03-22T05:44:35;6.17;;;5.00;;
11228;SDS011;5671;47.936;8.716;2024-03-22T05:47:01;5.67;;;4.27;;
11228;SDS011;5671;47.936;8.716;2024-03-22T05:49:29;4.90;;;4.20;;
11228;SDS011;5671;47.936;8.716;2024-03-22T05:51:55;6.77;;;5.10;;
11228;SDS011;5671;47.936;8.716;2024-03-22T05:54:22;5.57;;;4.30;;
11228;SDS011;5671;47.936;8.716;2024-03-22T05:56:48;8.23;;;4.93;;
11228;SDS011;5671;47.936;8.716;2024-03-22T05:59:15;5.33;;;4.23;;
11228;SDS011;5671;47.936;8.716;2024-03-22T06:01:41;4.97;;;4.37;;
11228;SDS011;5671;47.936;8.716;2024-03-22T06:04:07;12.00;;;5.10;;
11228;SDS011;5671;47.936;8.716;2024-03-22T06:06:35;9.13;;;6.20;;
11228;SDS011;5671;47.936;8.716;2024-03-22T06:09:03;18.03;;;5.50;;
11228;SDS011;5671;47.936;8.716;2024-03-22T06:11:29;9.77;;;4.43;;
11228;SDS011;5671;47.936;8.716;2024-03-22T06:13:56;7.23;;;4.30;;
11228;SDS011;5671;47.936;8.716;2024-03-22T06:16:22;7.80;;;4.53;;
11228;SDS011;5671;47.936;8.716;2024-03-22T06:18:49;7.63;;;4.53;;
11228;SDS011;5671;47.936;8.716;2024-03-22T06:21:15;11.60;;;6.13;;
11228;SDS011;5671;47.936;8.716;2024-03-22T06:23:48;8.40;;;5.13;;
11228;SDS011;5671;47.936;8.716;2024-03-22T06:26:15;6.90;;;4.77;;
11228;SDS011;5671;47.936;8.716;2024-03-22T06:28:41;10.17;;;6.73;;
11228;SDS011;5671;47.936;8.716;2024-03-22T06:31:08;12.17;;;6.57;;
11228;SDS011;5671;47.936;8.716;2024-03-22T06:33:34;6.87;;;5.73;;
11228;SDS011;5671;47.936;8.716;2024-03-22T06:36:01;6.57;;;5.17;;
11228;SDS011;5671;47.936;8.716;2024-03-22T06:38:28;8.07;;;4.97;;
11228;SDS011;5671;47.936;8.716;2024-03-22T06:40:56;11.83;;;5.70;;
11228;SDS011;5671;47.936;8.716;2024-03-22T06:43:24;7.77;;;5.13;;
11228;SDS011;5671;47.936;8.716;2024-03-22T06:45:51;6.33;;;4.90;;
11228;SDS011;5671;47.936;8.716;2024-03-22T06:48:16;8.93;;;5.30;;
11228;SDS011;5671;47.936;8.716;2024-03-22T06:50:43;8.23;;;5.57;;
11228;SDS011;5671;47.936;8.716;2024-03-22T06:53:09;9.07;;;5.50;;
11228;SDS011;5671;47.936;8.716;2024-03-22T06:55:37;9.43;;;5.30;;
11228;SDS011;5671;47.936;8.716;2024-03-22T06:58:04;5.97;;;5.37;;
11228;SDS011;5671;47.936;8.716;2024-03-22T07:00:31;6.67;;;5.50;;
11228;SDS011;5671;47.936;8.716;2024-03-22T07:02:59;7.60;;;5.77;;
11228;SDS011;5671;47.936;8.716;2024-03-22T07:05:28;8.10;;;5.37;;
11228;SDS011;5671;47.936;8.716;2024-03-22T07:07:54;8.57;;;5.93;;
11228;SDS011;5671;47.936;8.716;2024-03-22T07:10:22;7.60;;;5.10;;
11228;SDS011;5671;47.936;8.716;2024-03-22T07:12:52;8.47;;;5.67;;
11228;SDS011;5671;47.936;8.716;2024-03-22T07:15:22;8.40;;;5.20;;
11228;SDS011;5671;47.936;8.716;2024-03-22T07:17:49;6.03;;;4.50;;
11228;SDS011;5671;47.936;8.716;2024-03-22T07:20:16;9.80;;;4.73;;
11228;SDS011;5671;47.936;8.716;2024-03-22T07:22:43;9.23;;;5.37;;
11228;SDS011;5671;47.936;8.716;2024-03-22T07:25:10;7.27;;;5.10;;
11228;SDS011;5671;47.936;8.716;2024-03-22T07:27:36;5.80;;;4.87;;
11228;SDS011;5671;47.936;8.716;2024-03-22T07:30:04;6.57;;;5.53;;
11228;SDS011;5671;47.936;8.716;2024-03-22T07:32:33;7.60;;;4.60;;
11228;SDS011;5671;47.936;8.716;2024-03-22T07:35:00;7.23;;;4.67;;
11228;SDS011;5671;47.936;8.716;2024-03-22T07:37:26;5.83;;;5.10;;
11228;SDS011;5671;47.936;8.716;2024-03-22T07:39:53;5.73;;;4.87;;
11228;SDS011;5671;47.936;8.716;2024-03-22T07:42:19;8.03;;;4.80;;
11228;SDS011;5671;47.936;8.716;2024-03-22T07:44:46;7.00;;;4.60;;
11228;SDS011;5671;47.936;8.716;2024-03-22T07:47:12;7.83;;;5.47;;
11228;SDS011;5671;47.936;8.716;2024-03-22T07:49:40;5.73;;;4.87;;
11228;SDS011;5671;47.936;8.716;2024-03-22T07:52:06;5.67;;;4.20;;
11228;SDS011;5671;47.936;8.716;2024-03-22T07:54:33;5.23;;;4.73;;
11228;SDS011;5671;47.936;8.716;2024-03-22T07:56:59;8.70;;;4.53;;
11228;SDS011;5671;47.936;8.716;2024-03-22T07:59:26;8.83;;;4.83;;
11228;SDS011;5671;47.936;8.716;2024-03-22T08:01:51;6.23;;;4.37;;
11228;SDS011;5671;47.936;8.716;2024-03-22T08:04:18;5.13;;;4.63;;
11228;SDS011;5671;47.936;8.716;2024-03-22T08:06:46;9.30;;;5.00;;
11228;SDS011;5671;47.936;8.716;2024-03-22T08:09:12;8.30;;;5.17;;
11228;SDS011;5671;47.936;8.716;2024-03-22T08:11:38;9.57;;;5.10;;
11228;SDS011;5671;47.936;8.716;2024-03-22T08:14:05;10.60;;;5.23;;
11228;SDS011;5671;47.936;8.716;2024-03-22T08:16:31;7.83;;;4.93;;
11228;SDS011;5671;47.936;8.716;2024-03-22T08:18:58;5.10;;;4.60;;
11228;SDS011;5671;47.936;8.716;2024-03-22T08:21:24;5.70;;;4.50;;
11228;SDS011;5671;47.936;8.716;2024-03-22T08:23:52;6.37;;;5.20;;
11228;SDS011;5671;47.936;8.716;2024-03-22T08:26:18;6.97;;;5.50;;
11228;SDS011;5671;47.936;8.716;2024-03-22T08:28:45;8.33;;;5.10;;
11228;SDS011;5671;47.936;8.716;2024-03-22T08:31:12;7.60;;;5.00;;
11228;SDS011;5671;47.936;8.716;2024-03-22T08:33:39;6.23;;;4.73;;
11228;SDS011;5671;47.936;8.716;2024-03-22T08:36:05;6.67;;;5.47;;
11228;SDS011;5671;47.936;8.716;2024-03-22T08:38:32;5.60;;;5.00;;
11228;SDS011;5671;47.936;8.716;2024-03-22T08:41:00;7.77;;;5.00;;
11228;SDS011;5671;47.936;8.716;2024-03-22T08:43:27;5.63;;;4.77;;
11228;SDS011;5671;47.936;8.716;2024-03-22T08:45:54;6.23;;;5.20;;
11228;SDS011;5671;47.936;8.716;2024-03-22T08:48:21;6.00;;;4.73;;
11228;SDS011;5671;47.936;8.716;2024-03-22T08:50:47;5.27;;;4.77;;
11228;SDS011;5671;47.936;8.716;2024-03-22T08:53:14;6.30;;;4.43;;
11228;SDS011;5671;47.936;8.716;2024-03-22T08:55:44;6.33;;;4.33;;
11228;SDS011;5671;47.936;8.716;2024-03-22T08:58:14;6.27;;;4.47;;
11228;SDS011;5671;47.936;8.716;2024-03-22T09:00:40;5.10;;;3.90;;
11228;SDS011;5671;47.936;8.716;2024-03-22T09:03:08;7.40;;;4.07;;
11228;SDS011;5671;47.936;8.716;2024-03-22T09:05:33;4.63;;;3.70;;
11228;SDS011;5671;47.936;8.716;2024-03-22T09:08:01;5.00;;;3.17;;
11228;SDS011;5671;47.936;8.716;2024-03-22T09:10:28;6.53;;;4.00;;
11228;SDS011;5671;47.936;8.716;2024-03-22T09:12:55;6.47;;;3.50;;
11228;SDS011;5671;47.936;8.716;2024-03-22T09:15:22;5.13;;;2.83;;
11228;SDS011;5671;47.936;8.716;2024-03-22T09:17:51;5.07;;;3.47;;
11228;SDS011;5671;47.936;8.716;2024-03-22T09:20:17;5.17;;;3.23;;
11228;SDS011;5671;47.936;8.716;2024-03-22T09:22:44;4.00;;;3.10;;
11228;SDS011;5671;47.936;8.716;2024-03-22T09:25:10;5.43;;;2.90;;
11228;SDS011;5671;47.936;8.716;2024-03-22T09:27:37;6.63;;;3.00;;
11228;SDS011;5671;47.936;8.716;2024-03-22T09:30:03;4.50;;;2.30;;
11228;SDS011;5671;47.936;8.716;2024-03-22T09:32:32;3.07;;;2.43;;
11228;SDS011;5671;47.936;8.716;2024-03-22T09:34:58;4.30;;;2.27;;
11228;SDS011;5671;47.936;8.716;2024-03-22T09:37:24;3.73;;;2.20;;
11228;SDS011;5671;47.936;8.716;2024-03-22T09:39:50;3.23;;;2.27;;
11228;SDS011;5671;47.936;8.716;2024-03-22T09:42:17;3.83;;;2.30;;
11228;SDS011;5671;47.936;8.716;2024-03-22T09:44:44;5.60;;;2.00;;
11228;SDS011;5671;47.936;8.716;2024-03-22T09:47:14;6.67;;;2.40;;
11228;SDS011;5671;47.936;8.716;2024-03-22T09:49:41;6.47;;;2.30;;
11228;SDS011;5671;47.936;8.716;2024-03-22T09:52:11;7.50;;;2.83;;
11228;SDS011;5671;47.936;8.716;2024-03-22T09:54:38;2.87;;;2.00;;
11228;SDS011;5671;47.936;8.716;2024-03-22T09:57:08;3.40;;;1.77;;
11228;SDS011;5671;47.936;8.716;2024-03-22T09:59:37;2.77;;;1.60;;
11228;SDS011;5671;47.936;8.716;2024-03-22T10:02:05;2.97;;;2.03;;
11228;SDS011;5671;47.936;8.716;2024-03-22T10:04:33;2.27;;;2.07;;
11228;SDS011;5671;47.936;8.716;2024-03-22T10:07:02;3.07;;;2.10;;
11228;SDS011;5671;47.936;8.716;2024-03-22T10:09:29;2.40;;;1.90;;
11228;SDS011;5671;47.936;8.716;2024-03-22T10:11:56;2.80;;;2.10;;
11228;SDS011;5671;47.936;8.716;2024-03-22T10:14:22;2.80;;;2.03;;
11228;SDS011;5671;47.936;8.716;2024-03-22T10:16:50;3.87;;;1.97;;
11228;SDS011;5671;47.936;8.716;2024-03-22T10:19:18;3.13;;;2.10;;
11228;SDS011;5671;47.936;8.716;2024-03-22T10:21:45;3.73;;;1.97;;
11228;SDS011;5671;47.936;8.716;2024-03-22T10:24:13;2.73;;;1.77;;
11228;SDS011;5671;47.936;8.716;2024-03-22T10:26:40;3.50;;;1.80;;
11228;SDS011;5671;47.936;8.716;2024-03-22T10:29:06;2.83;;;1.90;;
11228;SDS011;5671;47.936;8.716;2024-03-22T10:31:34;3.10;;;1.87;;
11228;SDS011;5671;47.936;8.716;2024-03-22T10:34:01;5.33;;;1.90;;
11228;SDS011;5671;47.936;8.716;2024-03-22T10:36:29;4.03;;;2.00;;
11228;SDS011;5671;47.936;8.716;2024-03-22T10:38:58;1.70;;;1.60;;
11228;SDS011;5671;47.936;8.716;2024-03-22T10:41:28;1.87;;;1.70;;
11228;SDS011;5671;47.936;8.716;2024-03-22T10:43:53;3.57;;;1.53;;
11228;SDS011;5671;47.936;8.716;2024-03-22T10:46:21;3.20;;;1.70;;
11228;SDS011;5671;47.936;8.716;2024-03-22T10:48:50;6.03;;;2.50;;
11228;SDS011;5671;47.936;8.716;2024-03-22T10:51:18;3.20;;;2.33;;
11228;SDS011;5671;47.936;8.716;2024-03-22T10:53:43;4.60;;;2.00;;
11228;SDS011;5671;47.936;8.716;2024-03-22T10:56:11;2.23;;;1.90;;
11228;SDS011;5671;47.936;8.716;2024-03-22T10:58:40;3.97;;;2.13;;
11228;SDS011;5671;47.936;8.716;2024-03-22T11:01:21;4.10;;;2.20;;
11228;SDS011;5671;47.936;8.716;2024-03-22T11:03:48;2.63;;;1.87;;
11228;SDS011;5671;47.936;8.716;2024-03-22T11:06:17;7.73;;;2.03;;
11228;SDS011;5671;47.936;8.716;2024-03-22T11:08:44;3.10;;;2.00;;
11228;SDS011;5671;47.936;8.716;2024-03-22T11:11:15;3.97;;;2.47;;
11228;SDS011;5671;47.936;8.716;2024-03-22T11:13:46;3.20;;;2.40;;
11228;SDS011;5671;47.936;8.716;2024-03-22T11:16:14;2.73;;;2.00;;
11228;SDS011;5671;47.936;8.716;2024-03-22T11:18:40;3.00;;;1.63;;
11228;SDS011;5671;47.936;8.716;2024-03-22T11:21:07;1.80;;;1.40;;
11228;SDS011;5671;47.936;8.716;2024-03-22T11:23:34;4.73;;;3.03;;
11228;SDS011;5671;47.936;8.716;2024-03-22T11:26:02;4.03;;;3.33;;
11228;SDS011;5671;47.936;8.716;2024-03-22T11:28:28;7.40;;;3.07;;
11228;SDS011;5671;47.936;8.716;2024-03-22T11:30:57;8.13;;;3.77;;
11228;SDS011;5671;47.936;8.716;2024-03-22T11:33:22;5.03;;;3.27;;
11228;SDS011;5671;47.936;8.716;2024-03-22T11:35:52;4.90;;;2.00;;
11228;SDS011;5671;47.936;8.716;2024-03-22T11:38:17;10.33;;;2.67;;
11228;SDS011;5671;47.936;8.716;2024-03-22T11:40:44;3.33;;;2.47;;
11228;SDS011;5671;47.936;8.716;2024-03-22T11:43:11;3.17;;;2.23;;
11228;SDS011;5671;47.936;8.716;2024-03-22T11:45:40;3.40;;;2.23;;
11228;SDS011;5671;47.936;8.716;2024-03-22T11:48:08;2.57;;;1.90;;
11228;SDS011;5671;47.936;8.716;2024-03-22T11:50:36;6.80;;;1.93;;
11228;SDS011;5671;47.936;8.716;2024-03-22T11:53:02;3.13;;;1.70;;
11228;SDS011;5671;47.936;8.716;2024-03-22T11:55:31;1.97;;;1.70;;
11228;SDS011;5671;47.936;8.716;2024-03-22T11:57:57;3.03;;;1.60;;
11228;SDS011;5671;47.936;8.716;2024-03-22T12:00:24;3.50;;;1.80;;
11228;SDS011;5671;47.936;8.716;2024-03-22T12:02:50;2.13;;;1.80;;
11228;SDS011;5671;47.936;8.716;2024-03-22T12:05:19;2.60;;;1.60;;
11228;SDS011;5671;47.936;8.716;2024-03-22T12:07:46;3.40;;;1.73;;
11228;SDS011;5671;47.936;8.716;2024-03-22T12:10:13;2.87;;;1.67;;
11228;SDS011;5671;47.936;8.716;2024-03-22T12:12:39;2.13;;;1.43;;
11228;SDS011;5671;47.936;8.716;2024-03-22T12:15:06;3.83;;;1.90;;
11228;SDS011;5671;47.936;8.716;2024-03-22T12:17:32;4.03;;;1.70;;
11228;SDS011;5671;47.936;8.716;2024-03-22T12:20:01;5.83;;;1.90;;
11228;SDS011;5671;47.936;8.716;2024-03-22T12:22:30;5.00;;;1.93;;
11228;SDS011;5671;47.936;8.716;2024-03-22T12:24:57;2.33;;;1.67;;
11228;SDS011;5671;47.936;8.716;2024-03-22T12:27:24;2.63;;;2.00;;
11228;SDS011;5671;47.936;8.716;2024-03-22T12:29:51;2.47;;;1.90;;
11228;SDS011;5671;47.936;8.716;2024-03-22T12:32:17;2.70;;;1.90;;
11228;SDS011;5671;47.936;8.716;2024-03-22T12:34:44;2.73;;;1.80;;
11228;SDS011;5671;47.936;8.716;2024-03-22T12:37:10;3.20;;;2.07;;
11228;SDS011;5671;47.936;8.716;2024-03-22T12:39:38;2.30;;;1.70;;
11228;SDS011;5671;47.936;8.716;2024-03-22T12:42:04;2.20;;;2.00;;
11228;SDS011;5671;47.936;8.716;2024-03-22T12:44:32;2.77;;;1.80;;
11228;SDS011;5671;47.936;8.716;2024-03-22T12:46:57;2.97;;;2.33;;
11228;SDS011;5671;47.936;8.716;2024-03-22T12:49:24;3.47;;;2.30;;
11228;SDS011;5671;47.936;8.716;2024-03-22T12:51:50;3.73;;;2.20;;
11228;SDS011;5671;47.936;8.716;2024-03-22T12:54:17;3.10;;;2.57;;
11228;SDS011;5671;47.936;8.716;2024-03-22T12:56:45;3.87;;;2.20;;
11228;SDS011;5671;47.936;8.716;2024-03-22T12:59:13;2.60;;;2.17;;
11228;SDS011;5671;47.936;8.716;2024-03-22T13:01:38;3.43;;;2.17;;
11228;SDS011;5671;47.936;8.716;2024-03-22T13:04:05;2.60;;;2.00;;
11228;SDS011;5671;47.936;8.716;2024-03-22T13:06:31;3.87;;;1.90;;
11228;SDS011;5671;47.936;8.716;2024-03-22T13:08:59;3.23;;;2.27;;
11228;SDS011;5671;47.936;8.716;2024-03-22T13:11:25;2.23;;;2.03;;
11228;SDS011;5671;47.936;8.716;2024-03-22T13:13:53;5.27;;;1.90;;
11228;SDS011;5671;47.936;8.716;2024-03-22T13:16:19;7.07;;;2.20;;
11228;SDS011;5671;47.936;8.716;2024-03-22T13:18:46;5.47;;;2.07;;
11228;SDS011;5671;47.936;8.716;2024-03-22T13:21:12;5.97;;;2.30;;
11228;SDS011;5671;47.936;8.716;2024-03-22T13:23:39;3.97;;;2.03;;
11228;SDS011;5671;47.936;8.716;2024-03-22T13:26:05;4.53;;;2.00;;
11228;SDS011;5671;47.936;8.716;2024-03-22T13:28:32;3.33;;;2.20;;
11228;SDS011;5671;47.936;8.716;2024-03-22T13:31:00;4.20;;;2.07;;
11228;SDS011;5671;47.936;8.716;2024-03-22T13:33:28;3.73;;;1.93;;
11228;SDS011;5671;47.936;8.716;2024-03-22T13:35:54;2.37;;;2.17;;
11228;SDS011;5671;47.936;8.716;2024-03-22T13:38:20;3.73;;;2.00;;
11228;SDS011;5671;47.936;8.716;2024-03-22T13:40:52;2.70;;;2.10;;
11228;SDS011;5671;47.936;8.716;2024-03-22T13:43:19;2.30;;;1.80;;
11228;SDS011;5671;47.936;8.716;2024-03-22T13:45:45;2.63;;;1.90;;
11228;SDS011;5671;47.936;8.716;2024-03-22T13:48:17;3.53;;;2.00;;
11228;SDS011;5671;47.936;8.716;2024-03-22T13:50:42;1.83;;;1.70;;
11228;SDS011;5671;47.936;8.716;2024-03-22T13:53:09;1.80;;;1.60;;
11228;SDS011;5671;47.936;8.716;2024-03-22T13:55:35;1.80;;;1.53;;
11228;SDS011;5671;47.936;8.716;2024-03-22T13:58:02;2.57;;;1.70;;
11228;SDS011;5671;47.936;8.716;2024-03-22T14:00:28;3.40;;;1.63;;
11228;SDS011;5671;47.936;8.716;2024-03-22T14:02:55;1.30;;;1.10;;
11228;SDS011;5671;47.936;8.716;2024-03-22T14:05:23;2.30;;;1.30;;
11228;SDS011;5671;47.936;8.716;2024-03-22T14:07:50;6.43;;;1.57;;
11228;SDS011;5671;47.936;8.716;2024-03-22T14:10:16;1.30;;;1.20;;
11228;SDS011;5671;47.936;8.716;2024-03-22T14:12:44;1.57;;;1.10;;
11228;SDS011;5671;47.936;8.716;2024-03-22T14:15:10;1.53;;;1.20;;
11228;SDS011;5671;47.936;8.716;2024-03-22T14:17:37;2.03;;;1.20;;
11228;SDS011;5671;47.936;8.716;2024-03-22T14:20:03;1.93;;;1.30;;
11228;SDS011;5671;47.936;8.716;2024-03-22T14:22:38;2.83;;;2.20;;
11228;SDS011;5671;47.936;8.716;2024-03-22T14:25:04;3.80;;;1.90;;
11228;SDS011;5671;47.936;8.716;2024-03-22T14:30:08;1.60;;;1.30;;
11228;SDS011;5671;47.936;8.716;2024-03-22T14:32:37;1.13;;;1.10;;
11228;SDS011;5671;47.936;8.716;2024-03-22T14:35:04;1.33;;;1.13;;
11228;SDS011;5671;47.936;8.716;2024-03-22T14:37:31;1.10;;;1.00;;
11228;SDS011;5671;47.936;8.716;2024-03-22T14:39:58;2.00;;;0.97;;
11228;SDS011;5671;47.936;8.716;2024-03-22T14:42:25;1.73;;;1.20;;
11228;SDS011;5671;47.936;8.716;2024-03-22T14:44:51;3.70;;;1.40;;
11228;SDS011;5671;47.936;8.716;2024-03-22T14:47:20;2.77;;;1.40;;
11228;SDS011;5671;47.936;8.716;2024-03-22T14:49:48;3.13;;;1.00;;
11228;SDS011;5671;47.936;8.716;2024-03-22T14:52:15;1.37;;;1.03;;
11228;SDS011;5671;47.936;8.716;2024-03-22T14:54:41;1.50;;;1.07;;
11228;SDS011;5671;47.936;8.716;2024-03-22T14:57:09;1.27;;;1.17;;
11228;SDS011;5671;47.936;8.716;2024-03-22T14:59:36;1.13;;;1.03;;
11228;SDS011;5671;47.936;8.716;2024-03-22T15:02:02;1.87;;;1.40;;